sensor_id;sensor_type;location;lat;lon;timestamp;P1;durP1;ratioP1;P2;durP2;ratioP2
55879;SDS011;41802;51.564;-1.838;2023-06-14T00:01:49;9.95;;;5.50;;
55879;SDS011;41802;51.564;-1.838;2023-06-14T00:04:17;12.35;;;5.78;;
55879;SDS011;41802;51.564;-1.838;2023-06-14T00:06:47;11.30;;;5.85;;
55879;SDS011;41802;51.564;-1.838;2023-06-14T00:09:18;10.15;;;5.72;;
55879;SDS011;41802;51.564;-1.838;2023-06-14T00:11:46;8.63;;;5.20;;
55879;SDS011;41802;51.564;-1.838;2023-06-14T00:14:14;11.02;;;5.55;;
55879;SDS011;41802;51.564;-1.838;2023-06-14T00:16:41;10.43;;;5.35;;
55879;SDS011;41802;51.564;-1.838;2023-06-14T00:19:11;10.55;;;5.60;;
55879;SDS011;41802;51.564;-1.838;2023-06-14T00:21:39;12.73;;;5.90;;
55879;SDS011;41802;51.564;-1.838;2023-06-14T00:24:07;11.37;;;4.83;;
55879;SDS011;41802;51.564;-1.838;2023-06-14T00:26:36;9.75;;;5.90;;
55879;SDS011;41802;51.564;-1.838;2023-06-14T00:29:04;10.23;;;5.28;;
55879;SDS011;41802;51.564;-1.838;2023-06-14T00:31:32;10.40;;;5.15;;
55879;SDS011;41802;51.564;-1.838;2023-06-14T00:34:10;9.80;;;5.80;;
55879;SDS011;41802;51.564;-1.838;2023-06-14T00:36:38;9.57;;;5.23;;
55879;SDS011;41802;51.564;-1.838;2023-06-14T00:39:06;9.68;;;5.38;;
55879;SDS011;41802;51.564;-1.838;2023-06-14T00:41:33;10.85;;;4.85;;
55879;SDS011;41802;51.564;-1.838;2023-06-14T00:44:03;9.82;;;5.40;;
55879;SDS011;41802;51.564;-1.838;2023-06-14T00:46:30;11.18;;;4.88;;
55879;SDS011;41802;51.564;-1.838;2023-06-14T00:48:58;9.67;;;5.50;;
55879;SDS011;41802;51.564;-1.838;2023-06-14T00:51:28;9.65;;;5.00;;
55879;SDS011;41802;51.564;-1.838;2023-06-14T00:53:55;9.45;;;5.05;;
55879;SDS011;41802;51.564;-1.838;2023-06-14T00:56:23;10.98;;;5.28;;
55879;SDS011;41802;51.564;-1.838;2023-06-14T00:58:51;9.75;;;4.80;;
55879;SDS011;41802;51.564;-1.838;2023-06-14T01:01:20;10.40;;;5.13;;
55879;SDS011;41802;51.564;-1.838;2023-06-14T01:03:48;10.50;;;5.13;;
55879;SDS011;41802;51.564;-1.838;2023-06-14T01:06:19;9.63;;;5.18;;
55879;SDS011;41802;51.564;-1.838;2023-06-14T01:08:57;8.95;;;4.88;;
55879;SDS011;41802;51.564;-1.838;2023-06-14T01:11:30;14.43;;;4.90;;
55879;SDS011;41802;51.564;-1.838;2023-06-14T01:13:59;7.83;;;4.17;;
55879;SDS011;41802;51.564;-1.838;2023-06-14T01:16:28;10.85;;;4.78;;
55879;SDS011;41802;51.564;-1.838;2023-06-14T01:18:58;9.02;;;4.18;;
55879;SDS011;41802;51.564;-1.838;2023-06-14T01:21:26;9.15;;;3.80;;
55879;SDS011;41802;51.564;-1.838;2023-06-14T01:23:56;9.63;;;4.60;;
55879;SDS011;41802;51.564;-1.838;2023-06-14T01:26:24;8.63;;;3.87;;
55879;SDS011;41802;51.564;-1.838;2023-06-14T01:28:52;10.13;;;4.75;;
55879;SDS011;41802;51.564;-1.838;2023-06-14T01:31:25;9.13;;;4.05;;
55879;SDS011;41802;51.564;-1.838;2023-06-14T01:33:53;9.07;;;4.18;;
55879;SDS011;41802;51.564;-1.838;2023-06-14T01:36:22;7.68;;;4.22;;
55879;SDS011;41802;51.564;-1.838;2023-06-14T01:38:50;9.27;;;3.93;;
55879;SDS011;41802;51.564;-1.838;2023-06-14T01:41:19;10.35;;;3.90;;
55879;SDS011;41802;51.564;-1.838;2023-06-14T01:43:48;8.48;;;3.60;;
55879;SDS011;41802;51.564;-1.838;2023-06-14T01:46:18;9.68;;;3.60;;
55879;SDS011;41802;51.564;-1.838;2023-06-14T01:48:46;8.18;;;3.60;;
55879;SDS011;41802;51.564;-1.838;2023-06-14T01:51:14;9.10;;;3.93;;
55879;SDS011;41802;51.564;-1.838;2023-06-14T01:53:42;7.95;;;3.83;;
55879;SDS011;41802;51.564;-1.838;2023-06-14T01:56:10;8.23;;;3.33;;
55879;SDS011;41802;51.564;-1.838;2023-06-14T01:58:39;8.15;;;3.80;;
55879;SDS011;41802;51.564;-1.838;2023-06-14T02:01:07;9.05;;;3.90;;
55879;SDS011;41802;51.564;-1.838;2023-06-14T02:03:35;9.43;;;3.43;;
55879;SDS011;41802;51.564;-1.838;2023-06-14T02:06:06;10.43;;;3.60;;
55879;SDS011;41802;51.564;-1.838;2023-06-14T02:08:34;8.10;;;3.60;;
55879;SDS011;41802;51.564;-1.838;2023-06-14T02:11:02;11.07;;;3.78;;
55879;SDS011;41802;51.564;-1.838;2023-06-14T02:13:30;11.70;;;3.70;;
55879;SDS011;41802;51.564;-1.838;2023-06-14T02:15:59;8.53;;;3.07;;
55879;SDS011;41802;51.564;-1.838;2023-06-14T02:18:27;7.50;;;3.30;;
55879;SDS011;41802;51.564;-1.838;2023-06-14T02:20:55;10.00;;;3.00;;
55879;SDS011;41802;51.564;-1.838;2023-06-14T02:23:23;7.10;;;2.60;;
55879;SDS011;41802;51.564;-1.838;2023-06-14T02:25:51;7.65;;;2.80;;
55879;SDS011;41802;51.564;-1.838;2023-06-14T02:28:19;9.83;;;2.63;;
55879;SDS011;41802;51.564;-1.838;2023-06-14T02:30:47;9.55;;;2.92;;
55879;SDS011;41802;51.564;-1.838;2023-06-14T02:33:16;7.50;;;3.03;;
55879;SDS011;41802;51.564;-1.838;2023-06-14T02:35:44;11.48;;;2.83;;
55879;SDS011;41802;51.564;-1.838;2023-06-14T02:38:13;10.95;;;2.90;;
55879;SDS011;41802;51.564;-1.838;2023-06-14T02:40:40;8.33;;;2.60;;
55879;SDS011;41802;51.564;-1.838;2023-06-14T02:43:09;12.30;;;3.38;;
55879;SDS011;41802;51.564;-1.838;2023-06-14T02:45:36;9.52;;;2.80;;
55879;SDS011;41802;51.564;-1.838;2023-06-14T02:48:04;8.30;;;2.67;;
55879;SDS011;41802;51.564;-1.838;2023-06-14T02:50:34;12.00;;;2.97;;
55879;SDS011;41802;51.564;-1.838;2023-06-14T02:53:02;9.87;;;2.67;;
55879;SDS011;41802;51.564;-1.838;2023-06-14T02:55:30;8.18;;;2.30;;
55879;SDS011;41802;51.564;-1.838;2023-06-14T02:57:58;8.88;;;3.03;;
55879;SDS011;41802;51.564;-1.838;2023-06-14T03:00:26;6.25;;;2.17;;
55879;SDS011;41802;51.564;-1.838;2023-06-14T03:02:56;8.82;;;2.90;;
55879;SDS011;41802;51.564;-1.838;2023-06-14T03:05:24;8.63;;;2.97;;
55879;SDS011;41802;51.564;-1.838;2023-06-14T03:07:55;8.73;;;2.85;;
55879;SDS011;41802;51.564;-1.838;2023-06-14T03:10:24;10.27;;;2.60;;
55879;SDS011;41802;51.564;-1.838;2023-06-14T03:12:55;8.93;;;2.90;;
55879;SDS011;41802;51.564;-1.838;2023-06-14T03:15:23;17.52;;;3.70;;
55879;SDS011;41802;51.564;-1.838;2023-06-14T03:17:51;7.17;;;2.83;;
55879;SDS011;41802;51.564;-1.838;2023-06-14T03:20:20;8.88;;;3.17;;
55879;SDS011;41802;51.564;-1.838;2023-06-14T03:22:48;8.73;;;2.75;;
55879;SDS011;41802;51.564;-1.838;2023-06-14T03:25:17;7.80;;;2.78;;
55879;SDS011;41802;51.564;-1.838;2023-06-14T03:27:50;9.55;;;3.22;;
55879;SDS011;41802;51.564;-1.838;2023-06-14T03:30:18;8.07;;;2.97;;
55879;SDS011;41802;51.564;-1.838;2023-06-14T03:32:46;12.98;;;3.60;;
55879;SDS011;41802;51.564;-1.838;2023-06-14T03:35:13;12.27;;;3.55;;
55879;SDS011;41802;51.564;-1.838;2023-06-14T03:37:44;8.70;;;3.03;;
55879;SDS011;41802;51.564;-1.838;2023-06-14T03:40:12;10.45;;;3.38;;
55879;SDS011;41802;51.564;-1.838;2023-06-14T03:42:41;13.63;;;3.20;;
55879;SDS011;41802;51.564;-1.838;2023-06-14T03:45:10;11.07;;;3.75;;
55879;SDS011;41802;51.564;-1.838;2023-06-14T03:47:38;7.78;;;3.22;;
55879;SDS011;41802;51.564;-1.838;2023-06-14T03:50:06;9.43;;;3.10;;
55879;SDS011;41802;51.564;-1.838;2023-06-14T03:52:34;10.05;;;3.30;;
55879;SDS011;41802;51.564;-1.838;2023-06-14T03:55:01;8.57;;;3.33;;
55879;SDS011;41802;51.564;-1.838;2023-06-14T03:57:32;10.82;;;2.80;;
55879;SDS011;41802;51.564;-1.838;2023-06-14T04:00:01;10.70;;;3.53;;
55879;SDS011;41802;51.564;-1.838;2023-06-14T04:02:31;12.00;;;4.43;;
55879;SDS011;41802;51.564;-1.838;2023-06-14T04:04:59;10.70;;;3.47;;
55879;SDS011;41802;51.564;-1.838;2023-06-14T04:07:28;10.30;;;3.80;;
55879;SDS011;41802;51.564;-1.838;2023-06-14T04:09:58;10.30;;;3.83;;
55879;SDS011;41802;51.564;-1.838;2023-06-14T04:12:26;9.38;;;3.22;;
55879;SDS011;41802;51.564;-1.838;2023-06-14T04:14:53;13.70;;;3.85;;
55879;SDS011;41802;51.564;-1.838;2023-06-14T04:17:31;9.65;;;3.65;;
55879;SDS011;41802;51.564;-1.838;2023-06-14T04:19:59;9.23;;;3.27;;
55879;SDS011;41802;51.564;-1.838;2023-06-14T04:22:27;9.75;;;3.60;;
55879;SDS011;41802;51.564;-1.838;2023-06-14T04:24:55;9.48;;;3.45;;
55879;SDS011;41802;51.564;-1.838;2023-06-14T04:27:31;8.60;;;3.35;;
55879;SDS011;41802;51.564;-1.838;2023-06-14T04:30:02;8.75;;;3.33;;
55879;SDS011;41802;51.564;-1.838;2023-06-14T04:32:32;9.40;;;3.10;;
55879;SDS011;41802;51.564;-1.838;2023-06-14T04:35:06;13.63;;;3.80;;
55879;SDS011;41802;51.564;-1.838;2023-06-14T04:37:34;10.90;;;3.97;;
55879;SDS011;41802;51.564;-1.838;2023-06-14T04:40:07;10.80;;;3.80;;
55879;SDS011;41802;51.564;-1.838;2023-06-14T04:42:37;11.20;;;3.60;;
55879;SDS011;41802;51.564;-1.838;2023-06-14T04:45:07;11.70;;;3.93;;
55879;SDS011;41802;51.564;-1.838;2023-06-14T04:47:36;9.35;;;3.70;;
55879;SDS011;41802;51.564;-1.838;2023-06-14T04:50:05;8.93;;;3.38;;
55879;SDS011;41802;51.564;-1.838;2023-06-14T04:52:33;14.13;;;3.72;;
55879;SDS011;41802;51.564;-1.838;2023-06-14T04:55:02;13.27;;;3.60;;
55879;SDS011;41802;51.564;-1.838;2023-06-14T04:57:30;8.23;;;3.20;;
55879;SDS011;41802;51.564;-1.838;2023-06-14T04:59:58;10.50;;;3.55;;
55879;SDS011;41802;51.564;-1.838;2023-06-14T05:02:27;11.00;;;3.90;;
55879;SDS011;41802;51.564;-1.838;2023-06-14T05:04:58;10.48;;;3.20;;
55879;SDS011;41802;51.564;-1.838;2023-06-14T05:07:28;11.63;;;4.00;;
55879;SDS011;41802;51.564;-1.838;2023-06-14T05:09:56;8.97;;;3.50;;
55879;SDS011;41802;51.564;-1.838;2023-06-14T05:12:26;14.43;;;3.42;;
55879;SDS011;41802;51.564;-1.838;2023-06-14T05:14:55;9.75;;;3.40;;
55879;SDS011;41802;51.564;-1.838;2023-06-14T05:17:24;8.73;;;3.35;;
55879;SDS011;41802;51.564;-1.838;2023-06-14T05:19:55;16.90;;;4.30;;
55879;SDS011;41802;51.564;-1.838;2023-06-14T05:22:25;10.87;;;3.20;;
55879;SDS011;41802;51.564;-1.838;2023-06-14T05:24:53;12.50;;;3.60;;
55879;SDS011;41802;51.564;-1.838;2023-06-14T05:27:21;8.25;;;3.40;;
55879;SDS011;41802;51.564;-1.838;2023-06-14T05:29:49;9.90;;;3.70;;
55879;SDS011;41802;51.564;-1.838;2023-06-14T05:32:17;8.95;;;3.90;;
55879;SDS011;41802;51.564;-1.838;2023-06-14T05:34:45;10.30;;;3.67;;
55879;SDS011;41802;51.564;-1.838;2023-06-14T05:37:12;9.38;;;3.72;;
55879;SDS011;41802;51.564;-1.838;2023-06-14T05:39:41;9.38;;;3.60;;
55879;SDS011;41802;51.564;-1.838;2023-06-14T05:42:09;8.77;;;3.50;;
55879;SDS011;41802;51.564;-1.838;2023-06-14T05:44:37;10.10;;;3.95;;
55879;SDS011;41802;51.564;-1.838;2023-06-14T05:47:05;11.80;;;4.40;;
55879;SDS011;41802;51.564;-1.838;2023-06-14T05:49:32;9.23;;;3.83;;
55879;SDS011;41802;51.564;-1.838;2023-06-14T05:52:00;10.25;;;4.10;;
55879;SDS011;41802;51.564;-1.838;2023-06-14T05:54:28;10.48;;;4.03;;
55879;SDS011;41802;51.564;-1.838;2023-06-14T05:56:57;8.10;;;3.80;;
55879;SDS011;41802;51.564;-1.838;2023-06-14T05:59:28;9.87;;;3.33;;
55879;SDS011;41802;51.564;-1.838;2023-06-14T06:01:57;10.73;;;4.28;;
55879;SDS011;41802;51.564;-1.838;2023-06-14T06:04:25;11.10;;;3.90;;
55879;SDS011;41802;51.564;-1.838;2023-06-14T06:06:53;8.68;;;3.30;;
55879;SDS011;41802;51.564;-1.838;2023-06-14T06:09:21;9.40;;;3.63;;
55879;SDS011;41802;51.564;-1.838;2023-06-14T06:11:48;9.80;;;3.70;;
55879;SDS011;41802;51.564;-1.838;2023-06-14T06:14:21;11.57;;;4.18;;
55879;SDS011;41802;51.564;-1.838;2023-06-14T06:16:48;9.88;;;4.07;;
55879;SDS011;41802;51.564;-1.838;2023-06-14T06:19:16;12.13;;;4.00;;
55879;SDS011;41802;51.564;-1.838;2023-06-14T06:21:44;11.80;;;4.13;;
55879;SDS011;41802;51.564;-1.838;2023-06-14T06:24:12;12.73;;;4.23;;
55879;SDS011;41802;51.564;-1.838;2023-06-14T06:26:39;12.23;;;4.60;;
55879;SDS011;41802;51.564;-1.838;2023-06-14T06:29:07;8.93;;;3.50;;
55879;SDS011;41802;51.564;-1.838;2023-06-14T06:31:37;9.23;;;3.85;;
55879;SDS011;41802;51.564;-1.838;2023-06-14T06:34:04;11.40;;;3.55;;
55879;SDS011;41802;51.564;-1.838;2023-06-14T06:36:32;11.80;;;4.50;;
55879;SDS011;41802;51.564;-1.838;2023-06-14T06:39:00;12.00;;;3.90;;
55879;SDS011;41802;51.564;-1.838;2023-06-14T06:41:27;11.38;;;4.03;;
55879;SDS011;41802;51.564;-1.838;2023-06-14T06:43:55;13.68;;;4.15;;
55879;SDS011;41802;51.564;-1.838;2023-06-14T06:46:23;11.55;;;3.63;;
55879;SDS011;41802;51.564;-1.838;2023-06-14T06:48:52;13.00;;;3.60;;
55879;SDS011;41802;51.564;-1.838;2023-06-14T06:51:20;10.68;;;4.00;;
55879;SDS011;41802;51.564;-1.838;2023-06-14T06:53:52;10.65;;;3.15;;
55879;SDS011;41802;51.564;-1.838;2023-06-14T06:56:19;13.00;;;3.97;;
55879;SDS011;41802;51.564;-1.838;2023-06-14T06:58:49;10.45;;;3.95;;
55879;SDS011;41802;51.564;-1.838;2023-06-14T07:01:17;12.93;;;4.10;;
55879;SDS011;41802;51.564;-1.838;2023-06-14T07:03:45;14.45;;;4.15;;
55879;SDS011;41802;51.564;-1.838;2023-06-14T07:06:14;11.68;;;3.83;;
55879;SDS011;41802;51.564;-1.838;2023-06-14T07:08:43;11.05;;;3.60;;
55879;SDS011;41802;51.564;-1.838;2023-06-14T07:11:12;9.60;;;3.58;;
55879;SDS011;41802;51.564;-1.838;2023-06-14T07:13:40;11.53;;;3.60;;
55879;SDS011;41802;51.564;-1.838;2023-06-14T07:16:07;10.75;;;3.83;;
55879;SDS011;41802;51.564;-1.838;2023-06-14T07:18:35;13.13;;;4.32;;
55879;SDS011;41802;51.564;-1.838;2023-06-14T07:21:04;11.57;;;3.95;;
55879;SDS011;41802;51.564;-1.838;2023-06-14T07:23:33;12.52;;;4.45;;
55879;SDS011;41802;51.564;-1.838;2023-06-14T07:26:01;9.73;;;3.77;;
55879;SDS011;41802;51.564;-1.838;2023-06-14T07:28:29;9.73;;;3.90;;
55879;SDS011;41802;51.564;-1.838;2023-06-14T07:30:57;12.00;;;4.10;;
55879;SDS011;41802;51.564;-1.838;2023-06-14T07:33:25;11.13;;;3.60;;
55879;SDS011;41802;51.564;-1.838;2023-06-14T07:35:53;7.70;;;3.55;;
55879;SDS011;41802;51.564;-1.838;2023-06-14T07:38:22;10.03;;;3.63;;
55879;SDS011;41802;51.564;-1.838;2023-06-14T07:40:51;12.95;;;4.00;;
55879;SDS011;41802;51.564;-1.838;2023-06-14T07:43:19;11.23;;;3.88;;
55879;SDS011;41802;51.564;-1.838;2023-06-14T07:45:48;12.43;;;5.07;;
55879;SDS011;41802;51.564;-1.838;2023-06-14T07:48:32;13.27;;;4.07;;
55879;SDS011;41802;51.564;-1.838;2023-06-14T07:51:00;12.67;;;4.17;;
55879;SDS011;41802;51.564;-1.838;2023-06-14T07:53:28;11.98;;;4.13;;
55879;SDS011;41802;51.564;-1.838;2023-06-14T07:55:59;12.18;;;3.85;;
55879;SDS011;41802;51.564;-1.838;2023-06-14T07:58:27;10.27;;;3.88;;
55879;SDS011;41802;51.564;-1.838;2023-06-14T08:00:57;9.80;;;3.28;;
55879;SDS011;41802;51.564;-1.838;2023-06-14T08:03:24;8.73;;;3.27;;
55879;SDS011;41802;51.564;-1.838;2023-06-14T08:05:54;11.85;;;3.10;;
55879;SDS011;41802;51.564;-1.838;2023-06-14T08:08:21;13.57;;;3.22;;
55879;SDS011;41802;51.564;-1.838;2023-06-14T08:10:49;10.45;;;3.95;;
55879;SDS011;41802;51.564;-1.838;2023-06-14T08:13:18;12.13;;;3.88;;
55879;SDS011;41802;51.564;-1.838;2023-06-14T08:15:46;10.23;;;3.37;;
55879;SDS011;41802;51.564;-1.838;2023-06-14T08:18:19;9.93;;;3.17;;
55879;SDS011;41802;51.564;-1.838;2023-06-14T08:20:47;9.57;;;3.80;;
55879;SDS011;41802;51.564;-1.838;2023-06-14T08:23:16;11.15;;;3.47;;
55879;SDS011;41802;51.564;-1.838;2023-06-14T08:25:47;10.10;;;3.25;;
55879;SDS011;41802;51.564;-1.838;2023-06-14T08:28:15;9.60;;;2.97;;
55879;SDS011;41802;51.564;-1.838;2023-06-14T08:30:44;7.55;;;3.40;;
55879;SDS011;41802;51.564;-1.838;2023-06-14T08:33:11;9.15;;;2.78;;
55879;SDS011;41802;51.564;-1.838;2023-06-14T08:35:42;9.13;;;2.83;;
55879;SDS011;41802;51.564;-1.838;2023-06-14T08:38:10;7.75;;;3.10;;
55879;SDS011;41802;51.564;-1.838;2023-06-14T08:40:39;9.77;;;2.80;;
55879;SDS011;41802;51.564;-1.838;2023-06-14T08:43:07;7.50;;;2.80;;
55879;SDS011;41802;51.564;-1.838;2023-06-14T08:45:35;8.70;;;3.03;;
55879;SDS011;41802;51.564;-1.838;2023-06-14T08:48:04;10.75;;;3.00;;
55879;SDS011;41802;51.564;-1.838;2023-06-14T08:50:32;9.57;;;3.22;;
55879;SDS011;41802;51.564;-1.838;2023-06-14T08:53:03;10.20;;;3.17;;
55879;SDS011;41802;51.564;-1.838;2023-06-14T08:55:31;7.18;;;2.90;;
55879;SDS011;41802;51.564;-1.838;2023-06-14T08:58:03;8.02;;;2.40;;
55879;SDS011;41802;51.564;-1.838;2023-06-14T09:00:32;8.82;;;2.72;;
55879;SDS011;41802;51.564;-1.838;2023-06-14T09:03:01;12.00;;;3.20;;
55879;SDS011;41802;51.564;-1.838;2023-06-14T09:05:31;8.50;;;3.27;;
55879;SDS011;41802;51.564;-1.838;2023-06-14T09:08:00;7.72;;;2.78;;
55879;SDS011;41802;51.564;-1.838;2023-06-14T09:10:32;12.00;;;3.42;;
55879;SDS011;41802;51.564;-1.838;2023-06-14T09:13:01;10.23;;;3.13;;
55879;SDS011;41802;51.564;-1.838;2023-06-14T09:15:29;29.55;;;3.53;;
55879;SDS011;41802;51.564;-1.838;2023-06-14T09:17:57;7.87;;;2.87;;
55879;SDS011;41802;51.564;-1.838;2023-06-14T09:20:25;9.43;;;3.05;;
55879;SDS011;41802;51.564;-1.838;2023-06-14T09:22:54;8.77;;;3.13;;
55879;SDS011;41802;51.564;-1.838;2023-06-14T09:25:22;8.88;;;3.03;;
55879;SDS011;41802;51.564;-1.838;2023-06-14T09:28:06;9.15;;;3.30;;
55879;SDS011;41802;51.564;-1.838;2023-06-14T09:30:34;9.13;;;3.20;;
55879;SDS011;41802;51.564;-1.838;2023-06-14T09:33:02;8.05;;;2.70;;
55879;SDS011;41802;51.564;-1.838;2023-06-14T09:35:30;8.45;;;2.75;;
55879;SDS011;41802;51.564;-1.838;2023-06-14T09:38:00;11.02;;;3.15;;
55879;SDS011;41802;51.564;-1.838;2023-06-14T09:40:27;7.05;;;3.03;;
55879;SDS011;41802;51.564;-1.838;2023-06-14T09:42:55;15.70;;;2.90;;
55879;SDS011;41802;51.564;-1.838;2023-06-14T09:45:28;10.25;;;3.30;;
55879;SDS011;41802;51.564;-1.838;2023-06-14T09:47:58;10.13;;;3.20;;
55879;SDS011;41802;51.564;-1.838;2023-06-14T09:50:33;9.13;;;3.10;;
55879;SDS011;41802;51.564;-1.838;2023-06-14T09:53:05;8.63;;;3.15;;
55879;SDS011;41802;51.564;-1.838;2023-06-14T09:55:34;8.67;;;3.43;;
55879;SDS011;41802;51.564;-1.838;2023-06-14T09:58:04;11.75;;;3.00;;
55879;SDS011;41802;51.564;-1.838;2023-06-14T10:00:33;9.52;;;3.20;;
55879;SDS011;41802;51.564;-1.838;2023-06-14T10:03:03;8.43;;;3.08;;
55879;SDS011;41802;51.564;-1.838;2023-06-14T10:05:32;11.00;;;3.80;;
55879;SDS011;41802;51.564;-1.838;2023-06-14T10:08:04;8.87;;;3.40;;
55879;SDS011;41802;51.564;-1.838;2023-06-14T10:10:35;7.40;;;2.88;;
55879;SDS011;41802;51.564;-1.838;2023-06-14T10:13:06;10.32;;;2.67;;
55879;SDS011;41802;51.564;-1.838;2023-06-14T10:15:35;8.70;;;2.80;;
55879;SDS011;41802;51.564;-1.838;2023-06-14T10:18:06;9.23;;;3.58;;
55879;SDS011;41802;51.564;-1.838;2023-06-14T10:20:39;8.07;;;3.50;;
55879;SDS011;41802;51.564;-1.838;2023-06-14T10:23:13;9.45;;;3.60;;
55879;SDS011;41802;51.564;-1.838;2023-06-14T10:25:42;8.88;;;3.08;;
55879;SDS011;41802;51.564;-1.838;2023-06-14T10:28:17;9.35;;;3.05;;
55879;SDS011;41802;51.564;-1.838;2023-06-14T10:33:28;10.47;;;3.50;;
55879;SDS011;41802;51.564;-1.838;2023-06-14T10:36:06;8.48;;;3.35;;
55879;SDS011;41802;51.564;-1.838;2023-06-14T10:38:36;9.20;;;3.42;;
55879;SDS011;41802;51.564;-1.838;2023-06-14T10:41:04;12.50;;;3.50;;
55879;SDS011;41802;51.564;-1.838;2023-06-14T10:43:31;10.18;;;3.70;;
55879;SDS011;41802;51.564;-1.838;2023-06-14T10:46:15;7.93;;;3.80;;
55879;SDS011;41802;51.564;-1.838;2023-06-14T10:48:44;10.63;;;3.80;;
55879;SDS011;41802;51.564;-1.838;2023-06-14T10:51:15;15.20;;;4.32;;
55879;SDS011;41802;51.564;-1.838;2023-06-14T10:53:48;8.13;;;4.13;;
55879;SDS011;41802;51.564;-1.838;2023-06-14T10:56:28;9.95;;;3.80;;
55879;SDS011;41802;51.564;-1.838;2023-06-14T10:58:56;8.00;;;3.47;;
55879;SDS011;41802;51.564;-1.838;2023-06-14T11:01:29;9.20;;;3.58;;
55879;SDS011;41802;51.564;-1.838;2023-06-14T11:04:05;9.13;;;3.60;;
55879;SDS011;41802;51.564;-1.838;2023-06-14T11:06:39;8.85;;;3.85;;
55879;SDS011;41802;51.564;-1.838;2023-06-14T11:09:27;8.88;;;3.83;;
55879;SDS011;41802;51.564;-1.838;2023-06-14T11:12:01;11.03;;;3.90;;
55879;SDS011;41802;51.564;-1.838;2023-06-14T11:14:29;9.82;;;4.18;;
55879;SDS011;41802;51.564;-1.838;2023-06-14T11:16:57;10.10;;;3.83;;
55879;SDS011;41802;51.564;-1.838;2023-06-14T11:19:25;9.02;;;4.30;;
55879;SDS011;41802;51.564;-1.838;2023-06-14T11:21:55;9.50;;;4.65;;
55879;SDS011;41802;51.564;-1.838;2023-06-14T11:24:23;8.50;;;4.20;;
55879;SDS011;41802;51.564;-1.838;2023-06-14T11:26:52;8.80;;;4.32;;
55879;SDS011;41802;51.564;-1.838;2023-06-14T11:29:20;10.45;;;3.22;;
55879;SDS011;41802;51.564;-1.838;2023-06-14T11:31:53;8.93;;;4.43;;
55879;SDS011;41802;51.564;-1.838;2023-06-14T11:34:21;9.60;;;4.00;;
55879;SDS011;41802;51.564;-1.838;2023-06-14T11:36:49;13.07;;;4.43;;
55879;SDS011;41802;51.564;-1.838;2023-06-14T11:39:23;11.00;;;4.40;;
55879;SDS011;41802;51.564;-1.838;2023-06-14T11:41:52;10.98;;;4.95;;
55879;SDS011;41802;51.564;-1.838;2023-06-14T11:44:21;11.75;;;4.55;;
55879;SDS011;41802;51.564;-1.838;2023-06-14T11:46:49;9.48;;;4.45;;
55879;SDS011;41802;51.564;-1.838;2023-06-14T11:49:17;8.63;;;4.60;;
55879;SDS011;41802;51.564;-1.838;2023-06-14T11:51:45;8.10;;;3.58;;
55879;SDS011;41802;51.564;-1.838;2023-06-14T11:54:13;11.10;;;4.30;;
55879;SDS011;41802;51.564;-1.838;2023-06-14T11:56:41;14.38;;;4.95;;
55879;SDS011;41802;51.564;-1.838;2023-06-14T11:59:12;11.35;;;4.82;;
55879;SDS011;41802;51.564;-1.838;2023-06-14T12:01:42;9.80;;;5.50;;
55879;SDS011;41802;51.564;-1.838;2023-06-14T12:04:10;9.60;;;5.30;;
55879;SDS011;41802;51.564;-1.838;2023-06-14T12:06:38;10.75;;;4.93;;
55879;SDS011;41802;51.564;-1.838;2023-06-14T12:09:07;9.45;;;4.75;;
55879;SDS011;41802;51.564;-1.838;2023-06-14T12:11:40;11.27;;;5.20;;
55879;SDS011;41802;51.564;-1.838;2023-06-14T12:14:08;9.83;;;5.13;;
55879;SDS011;41802;51.564;-1.838;2023-06-14T12:16:38;10.63;;;4.97;;
55879;SDS011;41802;51.564;-1.838;2023-06-14T12:19:09;13.55;;;5.70;;
55879;SDS011;41802;51.564;-1.838;2023-06-14T12:21:38;8.50;;;4.47;;
55879;SDS011;41802;51.564;-1.838;2023-06-14T12:24:07;12.45;;;4.68;;
55879;SDS011;41802;51.564;-1.838;2023-06-14T12:26:37;21.20;;;4.87;;
55879;SDS011;41802;51.564;-1.838;2023-06-14T12:29:05;11.52;;;5.28;;
55879;SDS011;41802;51.564;-1.838;2023-06-14T12:31:33;8.38;;;4.75;;
55879;SDS011;41802;51.564;-1.838;2023-06-14T12:34:02;10.45;;;5.25;;
55879;SDS011;41802;51.564;-1.838;2023-06-14T12:36:30;13.48;;;4.80;;
55879;SDS011;41802;51.564;-1.838;2023-06-14T12:38:58;11.57;;;4.97;;
55879;SDS011;41802;51.564;-1.838;2023-06-14T12:41:27;10.27;;;5.20;;
55879;SDS011;41802;51.564;-1.838;2023-06-14T12:43:55;10.77;;;4.57;;
55879;SDS011;41802;51.564;-1.838;2023-06-14T12:46:24;11.57;;;5.20;;
55879;SDS011;41802;51.564;-1.838;2023-06-14T12:48:52;6.22;;;3.08;;
55879;SDS011;41802;51.564;-1.838;2023-06-14T12:51:21;12.50;;;5.40;;
55879;SDS011;41802;51.564;-1.838;2023-06-14T12:53:49;9.15;;;5.32;;
55879;SDS011;41802;51.564;-1.838;2023-06-14T12:56:19;10.63;;;4.78;;
55879;SDS011;41802;51.564;-1.838;2023-06-14T12:58:50;13.20;;;6.40;;
55879;SDS011;41802;51.564;-1.838;2023-06-14T13:01:17;10.50;;;6.03;;
55879;SDS011;41802;51.564;-1.838;2023-06-14T13:03:46;11.20;;;4.90;;
55879;SDS011;41802;51.564;-1.838;2023-06-14T13:06:13;9.25;;;4.80;;
55879;SDS011;41802;51.564;-1.838;2023-06-14T13:08:42;10.75;;;5.70;;
55879;SDS011;41802;51.564;-1.838;2023-06-14T13:11:10;9.07;;;5.82;;
55879;SDS011;41802;51.564;-1.838;2023-06-14T13:13:38;14.55;;;5.97;;
55879;SDS011;41802;51.564;-1.838;2023-06-14T13:16:10;6.03;;;3.33;;
55879;SDS011;41802;51.564;-1.838;2023-06-14T13:18:40;7.53;;;4.22;;
55879;SDS011;41802;51.564;-1.838;2023-06-14T13:21:07;9.13;;;5.82;;
55879;SDS011;41802;51.564;-1.838;2023-06-14T13:23:35;13.63;;;5.90;;
55879;SDS011;41802;51.564;-1.838;2023-06-14T13:26:04;11.60;;;6.03;;
55879;SDS011;41802;51.564;-1.838;2023-06-14T13:28:32;10.70;;;5.43;;
55879;SDS011;41802;51.564;-1.838;2023-06-14T13:31:01;10.00;;;5.80;;
55879;SDS011;41802;51.564;-1.838;2023-06-14T13:33:29;11.15;;;5.53;;
55879;SDS011;41802;51.564;-1.838;2023-06-14T13:35:57;14.90;;;6.30;;
55879;SDS011;41802;51.564;-1.838;2023-06-14T13:38:24;14.70;;;6.38;;
55879;SDS011;41802;51.564;-1.838;2023-06-14T13:40:53;10.33;;;5.40;;
55879;SDS011;41802;51.564;-1.838;2023-06-14T13:43:23;8.98;;;4.93;;
55879;SDS011;41802;51.564;-1.838;2023-06-14T13:45:50;10.52;;;5.78;;
55879;SDS011;41802;51.564;-1.838;2023-06-14T13:48:18;15.25;;;6.75;;
55879;SDS011;41802;51.564;-1.838;2023-06-14T13:50:46;11.82;;;4.75;;
55879;SDS011;41802;51.564;-1.838;2023-06-14T13:53:14;13.07;;;7.27;;
55879;SDS011;41802;51.564;-1.838;2023-06-14T13:55:42;14.32;;;6.93;;
55879;SDS011;41802;51.564;-1.838;2023-06-14T13:58:10;13.25;;;6.70;;
55879;SDS011;41802;51.564;-1.838;2023-06-14T14:00:39;10.43;;;6.30;;
55879;SDS011;41802;51.564;-1.838;2023-06-14T14:03:07;10.57;;;5.85;;
55879;SDS011;41802;51.564;-1.838;2023-06-14T14:05:36;12.00;;;6.73;;
55879;SDS011;41802;51.564;-1.838;2023-06-14T14:08:04;12.65;;;6.80;;
55879;SDS011;41802;51.564;-1.838;2023-06-14T14:10:31;14.02;;;6.70;;
55879;SDS011;41802;51.564;-1.838;2023-06-14T14:12:59;45.35;;;8.73;;
55879;SDS011;41802;51.564;-1.838;2023-06-14T14:15:27;12.95;;;6.78;;
55879;SDS011;41802;51.564;-1.838;2023-06-14T14:17:57;9.57;;;6.30;;
55879;SDS011;41802;51.564;-1.838;2023-06-14T14:20:24;17.65;;;7.65;;
55879;SDS011;41802;51.564;-1.838;2023-06-14T14:22:52;10.45;;;5.45;;
55879;SDS011;41802;51.564;-1.838;2023-06-14T14:25:20;20.45;;;6.82;;
55879;SDS011;41802;51.564;-1.838;2023-06-14T14:27:49;11.45;;;6.90;;
55879;SDS011;41802;51.564;-1.838;2023-06-14T14:30:18;11.33;;;7.00;;
55879;SDS011;41802;51.564;-1.838;2023-06-14T14:32:50;15.90;;;6.88;;
55879;SDS011;41802;51.564;-1.838;2023-06-14T14:35:20;9.75;;;6.70;;
55879;SDS011;41802;51.564;-1.838;2023-06-14T14:37:51;11.38;;;6.93;;
55879;SDS011;41802;51.564;-1.838;2023-06-14T14:40:20;21.15;;;7.03;;
55879;SDS011;41802;51.564;-1.838;2023-06-14T14:42:49;12.67;;;4.90;;